createdAt,value
2018-02-08T00:00:45.484Z,102180.77
2018-02-08T00:03:13.823Z,102185.51
2018-02-08T00:05:42.155Z,102179.14
2018-02-08T00:08:10.485Z,102174.46
2018-02-08T00:10:38.830Z,102179.63
2018-02-08T00:13:07.131Z,102180.89
2018-02-08T00:15:36.198Z,102181.73
2018-02-08T00:18:04.543Z,102187.50
2018-02-08T00:20:32.905Z,102181.47
2018-02-08T00:23:01.987Z,102193.63
2018-02-08T00:25:31.091Z,102189.45
2018-02-08T00:28:00.179Z,102190.36
2018-02-08T00:30:28.505Z,102191.80
2018-02-08T00:32:56.950Z,102193.91
2018-02-08T00:35:26.077Z,102195.94
2018-02-08T00:37:54.508Z,102201.47
2018-02-08T00:40:22.817Z,102191.10
2018-02-08T00:42:51.916Z,102200.41
2018-02-08T00:45:21.768Z,102203.77
2018-02-08T00:47:50.111Z,102199.01
2018-02-08T00:50:18.427Z,102201.05
2018-02-08T00:52:47.505Z,102194.75
2018-02-08T00:55:16.583Z,102205.61
2018-02-08T00:57:44.889Z,102208.07
2018-02-08T01:00:13.965Z,102200.50
2018-02-08T01:02:42.266Z,102209.22
2018-02-08T01:05:11.337Z,102217.27
2018-02-08T01:07:40.430Z,102213.42
2018-02-08T01:10:08.749Z,102210.05
2018-02-08T01:12:37.825Z,102215.24
2018-02-08T01:15:06.118Z,102211.39
2018-02-08T01:17:34.425Z,102209.17
2018-02-08T01:20:03.515Z,102217.72
2018-02-08T01:22:31.837Z,102212.73
2018-02-08T01:25:00.151Z,102210.09
2018-02-08T01:27:28.483Z,102212.85
2018-02-08T01:29:56.776Z,102207.97
2018-02-08T01:32:25.060Z,102207.48
2018-02-08T01:34:53.596Z,102209.47
2018-02-08T01:37:22.928Z,102204.48
2018-02-08T01:39:51.287Z,102205.86
2018-02-08T01:42:20.449Z,102209.59
2018-02-08T01:44:48.800Z,102210.02
2018-02-08T01:47:17.139Z,102205.79
2018-02-08T01:49:46.288Z,102204.71
2018-02-08T01:52:15.393Z,102200.39
2018-02-08T01:54:43.833Z,102202.01
2018-02-08T01:57:12.118Z,102191.80
2018-02-08T01:59:40.408Z,102193.24
2018-02-08T02:02:08.710Z,102201.11
2018-02-08T02:04:37.793Z,102195.64
2018-02-08T02:07:06.894Z,102200.95
2018-02-08T02:09:36.063Z,102191.40
2018-02-08T02:12:04.406Z,102188.09
2018-02-08T02:14:32.709Z,102180.08
2018-02-08T02:17:01.003Z,102184.56
2018-02-08T02:19:29.337Z,102179.09
2018-02-08T02:21:57.651Z,102172.62
2018-02-08T02:24:25.960Z,102173.75
2018-02-08T02:26:54.297Z,102171.84
2018-02-08T02:29:22.613Z,102167.09
2018-02-08T02:31:50.901Z,102173.00
2018-02-08T02:34:19.197Z,102180.86
2018-02-08T02:36:47.525Z,102181.46
2018-02-08T02:39:15.873Z,102179.18
2018-02-08T02:41:44.970Z,102183.56
2018-02-08T02:44:13.290Z,102189.69
2018-02-08T02:46:41.606Z,102184.46
2018-02-08T02:49:09.903Z,102186.98
2018-02-08T02:51:38.987Z,102187.34
2018-02-08T02:54:07.287Z,102176.17
2018-02-08T02:56:35.602Z,102178.23
2018-02-08T02:59:03.918Z,102174.57
2018-02-08T03:01:32.329Z,102176.62
2018-02-08T03:04:00.663Z,102175.30
2018-02-08T03:06:28.959Z,102171.57
2018-02-08T03:08:57.283Z,102175.66
2018-02-08T03:11:25.593Z,102166.95
2018-02-08T03:13:53.890Z,102165.09
2018-02-08T03:16:22.207Z,102168.39
2018-02-08T03:18:50.524Z,102168.91
2018-02-08T03:21:19.585Z,102169.69
2018-02-08T03:23:48.669Z,102167.77
2018-02-08T03:26:17.012Z,102169.61
2018-02-08T03:28:46.102Z,102164.87
2018-02-08T03:31:15.212Z,102166.07
2018-02-08T03:33:43.520Z,102161.63
2018-02-08T03:36:11.922Z,102161.20
2018-02-08T03:38:40.226Z,102155.92
2018-02-08T03:41:08.546Z,102162.59
2018-02-08T03:43:37.612Z,102160.19
2018-02-08T03:46:05.911Z,102152.75
2018-02-08T03:48:34.222Z,102149.63
2018-02-08T03:51:02.527Z,102147.05
2018-02-08T03:53:30.838Z,102137.69
2018-02-08T03:55:59.149Z,102140.51
2018-02-08T03:58:28.215Z,102143.55
2018-02-08T04:00:57.280Z,102147.45
2018-02-08T04:03:25.570Z,102144.42
2018-02-08T04:05:53.878Z,102138.30
2018-02-08T04:08:22.210Z,102148.55
2018-02-08T04:10:50.508Z,102150.95
2018-02-08T04:13:18.819Z,102148.16
2018-02-08T04:15:47.112Z,102159.92
2018-02-08T04:18:15.398Z,102154.97
2018-02-08T04:20:43.709Z,102151.80
2018-02-08T04:23:12.029Z,102151.61
2018-02-08T04:25:41.132Z,102156.72
2018-02-08T04:28:09.440Z,102145.86
2018-02-08T04:30:37.768Z,102152.63
2018-02-08T04:33:06.868Z,102148.08
2018-02-08T04:35:36.026Z,102149.88
2018-02-08T04:38:05.137Z,102147.36
2018-02-08T04:40:51.692Z,102149.00
2018-02-08T04:43:37.530Z,102154.27
2018-02-08T04:46:24.223Z,102153.70
2018-02-08T04:48:53.301Z,102152.13
2018-02-08T04:51:21.584Z,102149.09
2018-02-08T04:53:49.882Z,102147.04
2018-02-08T04:56:18.946Z,102148.86
2018-02-08T04:58:47.241Z,102151.12
2018-02-08T05:01:15.551Z,102152.74
2018-02-08T05:03:44.672Z,102153.29
2018-02-08T05:06:12.994Z,102151.70
2018-02-08T05:08:41.296Z,102150.14
2018-02-08T05:11:09.606Z,102152.34
2018-02-08T05:13:37.918Z,102153.50
2018-02-08T05:16:07.022Z,102150.36
2018-02-08T05:18:35.350Z,102147.70
2018-02-08T05:21:03.670Z,102150.05
2018-02-08T05:23:31.967Z,102150.22
2018-02-08T05:26:00.282Z,102146.99
2018-02-08T05:28:28.577Z,102154.42
2018-02-08T05:30:57.672Z,102147.66
2018-02-08T05:33:25.992Z,102149.03
2018-02-08T05:35:55.094Z,102146.62
2018-02-08T05:38:23.378Z,102149.84
2018-02-08T05:40:51.714Z,102155.64
2018-02-08T05:43:19.984Z,102158.27
2018-02-08T05:45:48.322Z,102152.84
2018-02-08T05:48:16.654Z,102150.09
2018-02-08T05:50:45.021Z,102152.52
2018-02-08T05:53:13.274Z,102149.23
2018-02-08T05:55:41.597Z,102147.64
2018-02-08T05:58:09.906Z,102146.33
2018-02-08T06:00:39.062Z,102143.55
2018-02-08T06:03:07.425Z,102148.05
2018-02-08T06:05:35.766Z,102155.11
2018-02-08T06:08:04.845Z,102156.75
2018-02-08T06:10:33.169Z,102152.22
2018-02-08T06:13:01.459Z,102160.02
2018-02-08T06:15:29.818Z,102157.53
2018-02-08T06:17:58.866Z,102153.95
2018-02-08T06:20:27.171Z,102155.39
2018-02-08T06:22:55.466Z,102153.28
2018-02-08T06:25:24.542Z,102155.13
2018-02-08T06:27:52.842Z,102159.19
2018-02-08T06:30:21.188Z,102157.59
2018-02-08T06:32:49.562Z,102157.80
2018-02-08T06:35:17.880Z,102168.17
2018-02-08T06:37:46.189Z,102167.64
2018-02-08T06:40:15.273Z,102163.39
2018-02-08T06:42:43.580Z,102170.07
2018-02-08T06:45:12.628Z,102171.95
2018-02-08T06:47:40.926Z,102167.16
2018-02-08T06:50:09.266Z,102163.16
2018-02-08T06:52:37.579Z,102157.10
2018-02-08T06:55:05.936Z,102159.57
2018-02-08T06:57:35.014Z,102160.94
2018-02-08T07:00:03.324Z,102165.84
2018-02-08T07:02:31.634Z,102167.58
2018-02-08T07:05:00.706Z,102167.10
2018-02-08T07:07:29.050Z,102172.06
2018-02-08T07:09:57.372Z,102176.48
2018-02-08T07:12:25.690Z,102176.91
2018-02-08T07:14:54.024Z,102178.28
2018-02-08T07:17:22.338Z,102175.05
2018-02-08T07:19:50.646Z,102182.53
2018-02-08T07:22:19.714Z,102170.86
2018-02-08T07:24:48.044Z,102175.06
2018-02-08T07:27:16.368Z,102175.81
2018-02-08T07:29:44.674Z,102184.87
2018-02-08T07:32:13.026Z,102186.45
2018-02-08T07:34:41.348Z,102188.39
2018-02-08T07:37:10.458Z,102188.70
2018-02-08T07:39:39.532Z,102192.77
2018-02-08T07:42:07.818Z,102189.44
2018-02-08T07:44:36.160Z,102193.17
2018-02-08T07:47:04.540Z,102189.00
2018-02-08T07:49:33.632Z,102192.59
2018-02-08T07:52:01.985Z,102197.49
2018-02-08T07:54:31.094Z,102193.42
2018-02-08T07:57:00.170Z,102195.91
2018-02-08T07:59:28.516Z,102199.02
2018-02-08T08:01:56.846Z,102201.34
2018-02-08T08:04:25.958Z,102202.95
2018-02-08T08:06:55.028Z,102201.39
2018-02-08T08:09:23.358Z,102206.02
2018-02-08T08:11:51.702Z,102203.84
2018-02-08T08:14:21.715Z,102202.50
2018-02-08T08:16:50.028Z,102199.86
2018-02-08T08:19:19.146Z,102205.02
2018-02-08T08:21:47.520Z,102198.22
2018-02-08T08:24:15.834Z,102207.31
2018-02-08T08:26:44.394Z,102201.77
2018-02-08T08:29:13.505Z,102202.67
2018-02-08T08:31:41.845Z,102206.82
2018-02-08T08:34:10.906Z,102199.22
2018-02-08T08:36:39.992Z,102199.31
2018-02-08T08:39:08.306Z,102200.88
2018-02-08T08:41:36.690Z,102207.59
2018-02-08T08:44:05.934Z,102202.48
2018-02-08T08:46:34.240Z,102215.16
2018-02-08T08:49:02.560Z,102220.54
2018-02-08T08:51:30.906Z,102218.70
2018-02-08T08:53:59.952Z,102209.98
2018-02-08T08:56:28.303Z,102217.39
2018-02-08T08:58:56.635Z,102219.84
2018-02-08T09:01:25.708Z,102212.23
2018-02-08T09:03:54.280Z,102217.22
2018-02-08T09:06:22.639Z,102211.93
2018-02-08T09:08:50.945Z,102214.16
2018-02-08T09:11:20.666Z,102215.24
2018-02-08T09:13:49.010Z,102213.37
2018-02-08T09:16:17.334Z,102210.20
2018-02-08T09:18:46.435Z,102211.52
2018-02-08T09:21:15.632Z,102213.91
2018-02-08T09:23:43.978Z,102204.75
2018-02-08T09:26:12.282Z,102209.50
2018-02-08T09:28:40.562Z,102206.83
2018-02-08T09:31:08.875Z,102204.54
2018-02-08T09:33:37.172Z,102208.35
2018-02-08T09:36:06.262Z,102198.92
2018-02-08T09:38:34.564Z,102199.95
2018-02-08T09:41:02.944Z,102197.31
2018-02-08T09:43:32.421Z,102199.05
2018-02-08T09:46:00.872Z,102203.78
2018-02-08T09:48:29.510Z,102203.94
2018-02-08T09:50:58.606Z,102196.14
2018-02-08T09:53:27.709Z,102199.06
2018-02-08T09:55:56.866Z,102201.95
2018-02-08T09:58:25.190Z,102200.28
2018-02-08T10:00:53.499Z,102195.73
2018-02-08T10:03:21.808Z,102200.59
2018-02-08T10:05:50.116Z,102195.35
2018-02-08T10:08:18.455Z,102200.20
2018-02-08T10:10:46.783Z,102197.83
2018-02-08T10:13:15.862Z,102197.98
2018-02-08T10:15:44.391Z,102201.41
2018-02-08T10:18:12.721Z,102203.92
2018-02-08T10:20:41.695Z,102208.64
2018-02-08T10:23:10.042Z,102210.52
2018-02-08T10:25:38.378Z,102207.34
2018-02-08T10:28:06.961Z,102206.42
2018-02-08T10:30:35.247Z,102200.50
2018-02-08T10:33:03.540Z,102198.09
2018-02-08T10:35:31.867Z,102195.45
2018-02-08T10:38:00.190Z,102197.55
2018-02-08T10:40:28.544Z,102197.30
2018-02-08T10:42:57.798Z,102198.69
2018-02-08T10:45:27.622Z,102202.16
2018-02-08T10:47:55.960Z,102199.11
2018-02-08T10:50:24.273Z,102196.95
2018-02-08T10:52:52.630Z,102195.53
2018-02-08T10:55:21.734Z,102200.62
2018-02-08T10:57:50.037Z,102197.13
2018-02-08T11:00:18.568Z,102204.88
2018-02-08T11:02:46.865Z,102198.70
2018-02-08T11:05:15.167Z,102195.73
2018-02-08T11:07:44.160Z,102189.09
2018-02-08T11:10:12.526Z,102189.37
2018-02-08T11:12:41.590Z,102193.14
2018-02-08T11:15:09.878Z,102187.14
2018-02-08T11:17:38.227Z,102191.61
2018-02-08T11:20:06.514Z,102193.05
2018-02-08T11:22:34.831Z,102191.59
2018-02-08T11:25:03.205Z,102179.57
2018-02-08T11:27:32.273Z,102185.95
2018-02-08T11:30:00.583Z,102175.59
2018-02-08T11:32:28.879Z,102169.80
2018-02-08T11:34:57.201Z,102171.54
2018-02-08T11:37:25.523Z,102176.81
2018-02-08T11:39:53.896Z,102173.72
2018-02-08T11:42:23.259Z,102173.14
2018-02-08T11:44:52.345Z,102179.13
2018-02-08T11:47:22.095Z,102181.50
2018-02-08T11:49:50.415Z,102173.29
2018-02-08T11:52:18.749Z,102174.12
2018-02-08T11:54:47.829Z,102177.86
2018-02-08T11:57:16.923Z,102175.06
2018-02-08T11:59:46.065Z,102171.35
2018-02-08T12:02:14.400Z,102171.97
2018-02-08T12:04:43.475Z,102162.96
2018-02-08T12:07:11.779Z,102168.19
2018-02-08T12:09:40.124Z,102159.81
2018-02-08T12:12:08.429Z,102155.81
2018-02-08T12:14:36.817Z,102161.20
2018-02-08T12:17:05.131Z,102159.05
2018-02-08T12:19:33.471Z,102144.16
2018-02-08T12:22:01.817Z,102141.91
2018-02-08T12:24:30.126Z,102138.00
2018-02-08T12:26:58.467Z,102134.16
2018-02-08T12:29:26.807Z,102128.80
2018-02-08T12:31:55.854Z,102123.33
2018-02-08T12:34:24.182Z,102117.01
2018-02-08T12:36:53.300Z,102120.82
2018-02-08T12:39:21.645Z,102109.30
2018-02-08T12:41:49.971Z,102105.42
2018-02-08T12:44:18.288Z,102103.45
2018-02-08T12:46:46.581Z,102103.38
2018-02-08T12:49:14.918Z,102105.92
2018-02-08T12:51:43.237Z,102105.35
2018-02-08T12:54:11.593Z,102105.41
2018-02-08T12:56:40.719Z,102104.39
2018-02-08T12:59:09.029Z,102089.77
2018-02-08T13:01:37.424Z,102097.97
2018-02-08T13:04:05.810Z,102088.36
2018-02-08T13:06:34.144Z,102089.05
2018-02-08T13:09:02.471Z,102090.87
2018-02-08T13:11:30.809Z,102081.61
2018-02-08T13:13:59.633Z,102084.99
2018-02-08T13:16:27.960Z,102077.78
2018-02-08T13:18:57.061Z,102084.16
2018-02-08T13:21:26.160Z,102081.01
2018-02-08T13:23:55.245Z,102077.09
2018-02-08T13:26:24.347Z,102076.30
2018-02-08T13:28:53.731Z,102077.93
2018-02-08T13:31:37.859Z,102077.63
2018-02-08T13:34:06.177Z,102070.02
2018-02-08T13:36:36.937Z,102070.70
2018-02-08T13:39:05.262Z,102069.70
2018-02-08T13:41:33.659Z,102061.59
2018-02-08T13:44:01.952Z,102063.19
2018-02-08T13:46:30.279Z,102063.34
2018-02-08T13:52:04.971Z,102056.42
2018-02-08T13:54:34.336Z,102061.75
2018-02-08T13:57:04.939Z,102065.22
2018-02-08T13:59:39.585Z,102064.95
2018-02-08T14:02:08.267Z,102063.02
2018-02-08T14:04:36.647Z,102056.86
2018-02-08T14:07:04.965Z,102058.03
2018-02-08T14:09:33.283Z,102049.66
2018-02-08T14:12:01.608Z,102044.89
2018-02-08T14:14:30.023Z,102035.91
2018-02-08T14:16:58.345Z,102039.72
2018-02-08T14:19:26.691Z,102035.75
2018-02-08T14:21:55.011Z,102027.52
2018-02-08T14:24:23.343Z,102018.80
2018-02-08T14:26:51.665Z,102019.71
2018-02-08T14:29:20.734Z,102013.73
2018-02-08T14:31:49.087Z,102010.81
2018-02-08T14:34:17.464Z,102017.05
2018-02-08T14:36:45.775Z,102017.00
2018-02-08T14:39:14.104Z,102015.20
2018-02-08T14:41:43.523Z,102012.13
2018-02-08T14:44:11.963Z,102006.78
2018-02-08T14:46:40.292Z,102009.36
2018-02-08T14:49:08.606Z,102004.69
2018-02-08T14:51:36.951Z,102008.17
2018-02-08T14:54:05.267Z,102012.41
2018-02-08T14:56:33.637Z,102007.44
2018-02-08T14:59:02.495Z,102010.72
2018-02-08T15:01:31.606Z,102014.48
2018-02-08T15:04:00.702Z,102009.34
2018-02-08T15:06:29.781Z,102006.47
2018-02-08T15:08:59.582Z,102004.73
2018-02-08T15:11:27.891Z,102011.58
2018-02-08T15:13:57.049Z,102011.36
2018-02-08T15:16:26.417Z,102006.34
2018-02-08T15:18:54.736Z,101999.43
2018-02-08T15:21:23.087Z,102011.84
2018-02-08T15:23:51.425Z,102011.20
2018-02-08T15:26:19.759Z,102014.92
2018-02-08T15:28:48.145Z,102010.17
2018-02-08T15:31:16.447Z,102016.17
2018-02-08T15:33:44.773Z,102015.82
2018-02-08T15:36:13.206Z,102014.64
2018-02-08T15:38:41.510Z,102010.53
2018-02-08T15:41:09.880Z,102005.30
2018-02-08T15:43:38.215Z,102006.62
2018-02-08T15:46:07.312Z,101996.13
2018-02-08T15:48:36.411Z,102007.06
2018-02-08T15:51:05.542Z,102006.32
2018-02-08T15:53:33.903Z,101999.35
2018-02-08T15:56:02.274Z,101993.60
2018-02-08T15:58:31.363Z,101994.64
2018-02-08T16:01:00.469Z,101991.89
2018-02-08T16:03:29.642Z,101996.24
2018-02-08T16:05:57.963Z,101990.95
2018-02-08T16:08:27.055Z,101989.74
2018-02-08T16:10:56.148Z,101994.70
2018-02-08T16:13:24.479Z,101986.03
2018-02-08T16:15:52.789Z,101983.75
2018-02-08T16:18:21.131Z,101979.47
2018-02-08T16:20:49.457Z,101973.05
2018-02-08T16:23:17.815Z,101977.59
2018-02-08T16:25:46.132Z,101976.10
2018-02-08T16:28:15.243Z,101979.46
2018-02-08T16:30:44.361Z,101984.23
2018-02-08T16:33:13.747Z,101981.31
2018-02-08T16:35:42.077Z,101979.05
2018-02-08T16:38:10.379Z,101983.13
2018-02-08T16:40:38.773Z,101976.98
2018-02-08T16:43:07.218Z,101973.24
2018-02-08T16:45:35.509Z,101971.36
2018-02-08T16:48:03.839Z,101978.70
2018-02-08T16:50:32.205Z,101978.99
2018-02-08T16:53:00.547Z,101980.73
2018-02-08T16:55:29.237Z,101976.75
2018-02-08T16:57:57.623Z,101972.93
2018-02-08T17:00:26.089Z,101978.50
2018-02-08T17:02:55.173Z,101978.63
2018-02-08T17:05:23.504Z,101972.87
2018-02-08T17:07:51.837Z,101979.71
2018-02-08T17:10:20.155Z,101977.05
2018-02-08T17:12:48.719Z,101971.16
2018-02-08T17:15:17.801Z,101963.62
2018-02-08T17:17:46.117Z,101973.77
2018-02-08T17:20:14.501Z,101968.00
2018-02-08T17:22:42.828Z,101968.95
2018-02-08T17:25:11.137Z,101972.41
2018-02-08T17:27:40.315Z,101969.43
2018-02-08T17:30:08.952Z,101969.41
2018-02-08T17:32:37.284Z,101968.52
2018-02-08T17:35:05.651Z,101962.30
2018-02-08T17:37:34.020Z,101964.23
2018-02-08T17:40:02.340Z,101968.40
2018-02-08T17:42:30.791Z,101969.11
2018-02-08T17:44:59.097Z,101966.73
2018-02-08T17:47:27.451Z,101977.68
2018-02-08T17:49:55.770Z,101970.16
2018-02-08T17:52:24.079Z,101975.39
2018-02-08T17:54:53.166Z,101968.20
2018-02-08T17:57:22.255Z,101965.33
2018-02-08T17:59:50.580Z,101974.95
2018-02-08T18:02:18.966Z,101973.59
2018-02-08T18:04:47.307Z,101969.58
2018-02-08T18:07:15.641Z,101968.58
2018-02-08T18:09:43.953Z,101970.70
2018-02-08T18:12:12.264Z,101963.59
2018-02-08T18:14:40.590Z,101964.84
2018-02-08T18:17:09.166Z,101966.48
2018-02-08T18:19:38.241Z,101965.77
2018-02-08T18:22:07.438Z,101966.13
2018-02-08T18:24:36.529Z,101968.48
2018-02-08T18:27:05.640Z,101967.77
2018-02-08T18:29:34.714Z,101969.16
2018-02-08T18:32:03.024Z,101960.09
2018-02-08T18:34:32.139Z,101953.81
2018-02-08T18:37:00.455Z,101948.66
2018-02-08T18:39:28.789Z,101953.09
2018-02-08T18:41:57.850Z,101956.73
2018-02-08T18:44:26.154Z,101952.55
2018-02-08T18:46:54.547Z,101944.52
2018-02-08T18:49:22.864Z,101943.52
2018-02-08T18:51:51.213Z,101948.19
2018-02-08T18:54:20.313Z,101946.80
2018-02-08T18:56:49.406Z,101942.00
2018-02-08T18:59:17.724Z,101936.01
2018-02-08T19:01:46.053Z,101939.48
2018-02-08T19:04:14.672Z,101942.37
2018-02-08T19:06:43.756Z,101940.12
2018-02-08T19:09:12.350Z,101938.02
2018-02-08T19:11:41.444Z,101922.46
2018-02-08T19:14:10.520Z,101929.19
2018-02-08T19:16:38.836Z,101924.94
2018-02-08T19:19:07.898Z,101930.03
2018-02-08T19:21:36.236Z,101922.59
2018-02-08T19:24:04.636Z,101921.75
2018-02-08T19:26:32.969Z,101932.92
2018-02-08T19:29:01.308Z,101931.66
2018-02-08T19:31:29.611Z,101926.67
2018-02-08T19:33:57.911Z,101925.97
2018-02-08T19:36:26.240Z,101920.69
2018-02-08T19:38:54.530Z,101926.45
2018-02-08T19:41:22.875Z,101926.16
2018-02-08T19:43:51.957Z,101925.02
2018-02-08T19:46:20.282Z,101928.78
2018-02-08T19:48:48.593Z,101923.92
2018-02-08T19:51:16.908Z,101924.05
2018-02-08T19:53:45.236Z,101922.86
2018-02-08T19:56:13.542Z,101903.72
2018-02-08T19:58:41.872Z,101908.81
2018-02-08T20:01:10.942Z,101911.04
2018-02-08T20:03:39.250Z,101898.63
2018-02-08T20:06:08.360Z,101896.05
2018-02-08T20:08:37.462Z,101898.53
2018-02-08T20:11:05.815Z,101892.51
2018-02-08T20:13:34.150Z,101884.72
2018-02-08T20:16:02.467Z,101878.73
2018-02-08T20:18:30.780Z,101873.51
2018-02-08T20:20:59.902Z,101881.55
2018-02-08T20:23:28.212Z,101877.36
2018-02-08T20:25:56.534Z,101887.20
2018-02-08T20:28:24.899Z,101888.38
2018-02-08T20:30:58.752Z,101881.91
2018-02-08T20:33:27.056Z,101886.95
2018-02-08T20:35:55.373Z,101890.69
2018-02-08T20:38:23.676Z,101878.95
2018-02-08T20:40:52.753Z,101877.61
2018-02-08T20:43:26.590Z,101879.15
2018-02-08T20:45:55.700Z,101879.81
2018-02-08T20:48:24.026Z,101879.23
2018-02-08T20:50:52.378Z,101871.50
2018-02-08T20:53:20.692Z,101869.94
2018-02-08T20:55:48.995Z,101871.84
2018-02-08T20:58:17.320Z,101873.09
2018-02-08T21:00:45.607Z,101864.64
2018-02-08T21:03:13.937Z,101856.50
2018-02-08T21:05:42.261Z,101849.84
2018-02-08T21:08:10.576Z,101847.50
2018-02-08T21:10:38.923Z,101848.39
2018-02-08T21:13:07.242Z,101838.32
2018-02-08T21:15:36.104Z,101843.54
2018-02-08T21:18:04.394Z,101839.87
2018-02-08T21:20:32.698Z,101839.52
2018-02-08T21:23:01.022Z,101837.78
2018-02-08T21:25:30.099Z,101832.98
2018-02-08T21:27:58.443Z,101834.72
2018-02-08T21:30:26.892Z,101827.41
2018-02-08T21:32:56.006Z,101830.53
2018-02-08T21:35:24.327Z,101829.85
2018-02-08T21:37:52.662Z,101812.95
2018-02-08T21:40:21.750Z,101830.77
2018-02-08T21:42:50.102Z,101815.91
2018-02-08T21:45:19.189Z,101819.91
2018-02-08T21:47:47.487Z,101814.80
2018-02-08T21:50:15.792Z,101808.95
2018-02-08T21:52:44.144Z,101802.13
2018-02-08T21:55:12.475Z,101799.30
2018-02-08T21:57:41.573Z,101802.30
2018-02-08T22:00:10.634Z,101794.25
2018-02-08T22:02:38.975Z,101798.02
2018-02-08T22:05:07.296Z,101787.45
2018-02-08T22:07:35.621Z,101801.81
2018-02-08T22:10:04.688Z,101797.17
2018-02-08T22:12:33.020Z,101795.08
2018-02-08T22:15:01.310Z,101793.15
2018-02-08T22:17:29.616Z,101789.64
2018-02-08T22:19:57.906Z,101790.41
2018-02-08T22:22:26.266Z,101786.53
2018-02-08T22:24:55.298Z,101785.56
2018-02-08T22:27:23.708Z,101787.23
2018-02-08T22:29:52.782Z,101786.47
2018-02-08T22:32:21.084Z,101782.31
2018-02-08T22:34:50.170Z,101782.18
2018-02-08T22:37:18.489Z,101780.17
2018-02-08T22:39:46.800Z,101776.05
2018-02-08T22:42:15.166Z,101776.56
2018-02-08T22:44:43.454Z,101775.94
2018-02-08T22:47:11.792Z,101774.07
2018-02-08T22:49:40.867Z,101770.27
2018-02-08T22:52:09.166Z,101769.91
2018-02-08T22:54:37.482Z,101772.91
2018-02-08T22:57:05.798Z,101774.06
2018-02-08T22:59:34.088Z,101774.34
2018-02-08T23:02:02.418Z,101770.66
2018-02-08T23:04:31.474Z,101771.22
2018-02-08T23:07:00.638Z,101764.68
2018-02-08T23:09:28.980Z,101760.59
2018-02-08T23:11:57.297Z,101756.47
2018-02-08T23:14:25.607Z,101748.22
2018-02-08T23:16:53.911Z,101753.70
2018-02-08T23:19:22.246Z,101747.37
2018-02-08T23:21:50.590Z,101737.35
2018-02-08T23:24:18.902Z,101735.05
2018-02-08T23:26:47.214Z,101732.34
2018-02-08T23:29:15.534Z,101727.17
2018-02-08T23:31:44.640Z,101726.05
2018-02-08T23:34:13.774Z,101727.24
2018-02-08T23:36:42.126Z,101722.73
2018-02-08T23:39:11.186Z,101725.78
2018-02-08T23:41:39.578Z,101718.41
2018-02-08T23:44:08.022Z,101724.25
2018-02-08T23:46:36.364Z,101719.38
2018-02-08T23:49:05.464Z,101719.41
2018-02-08T23:51:33.896Z,101720.66
2018-02-08T23:54:02.211Z,101721.47
2018-02-08T23:56:30.519Z,101721.67
2018-02-08T23:58:59.575Z,101722.88
